Time;durP1;ratioP1;P1;durP2;ratioP2;P2;SDS_P1;SDS_P2;PMS_P1;PMS_P2;Temp;Humidity;BMP_temperature;BMP_pressure;BME280_temperature;BME280_humidity;BME280_pressure;Samples;Min_cycle;Max_cycle;Signal;HPM_P1;HPM_P2
2022/09/14 00:02:00;;;;;;;3.63;3.30;;;18.30;99.90;;;;;;5051391;28;20982;-66
2022/09/14 00:04:28;;;;;;;4.33;3.00;;;18.30;99.90;;;;;;5051716;28;20503;-66
2022/09/14 00:06:55;;;;;;;3.73;3.10;;;18.40;99.90;;;;;;5051700;28;20965;-66
2022/09/14 00:09:23;;;;;;;3.30;3.00;;;18.40;99.90;;;;;;5051631;28;20446;-66
2022/09/14 00:11:51;;;;;;;3.20;2.80;;;18.50;99.90;;;;;;5051210;28;20460;-65
2022/09/14 00:14:18;;;;;;;4.20;3.23;;;18.50;99.90;;;;;;5051303;28;20448;-65
2022/09/14 00:16:46;;;;;;;3.27;2.97;;;18.60;99.90;;;;;;5051592;28;20436;-65
2022/09/14 00:19:19;;;;;;;4.20;3.80;;;18.60;99.90;;;;;;5051473;28;20483;-65
2022/09/14 00:21:51;;;;;;;3.17;2.87;;;18.60;99.90;;;;;;5051230;28;20464;-65
2022/09/14 00:24:18;;;;;;;3.63;2.90;;;18.70;99.90;;;;;;5051216;28;20484;-66
2022/09/14 00:26:45;;;;;;;3.47;3.13;;;18.70;99.90;;;;;;5051291;28;20798;-65
2022/09/14 00:29:12;;;;;;;3.30;3.00;;;18.70;99.90;;;;;;5051269;28;20717;-65
2022/09/14 00:31:40;;;;;;;2.83;2.60;;;18.70;99.90;;;;;;5051218;28;20464;-65
2022/09/14 00:34:12;;;;;;;2.97;2.77;;;18.70;99.90;;;;;;5050513;28;20938;-65
2022/09/14 00:36:41;;;;;;;3.30;3.00;;;18.70;99.90;;;;;;5051483;28;20458;-66
2022/09/14 00:39:10;;;;;;;4.70;3.10;;;18.70;99.90;;;;;;5051321;28;20802;-67
2022/09/14 00:41:39;;;;;;;3.00;2.70;;;18.70;99.90;;;;;;5051332;28;20996;-65
2022/09/14 00:44:07;;;;;;;5.37;3.60;;;18.70;99.90;;;;;;5051080;28;20833;-66
2022/09/14 00:46:37;;;;;;;3.63;3.33;;;18.70;99.90;;;;;;5051223;28;20527;-65
2022/09/14 00:49:07;;;;;;;3.63;3.33;;;18.70;99.90;;;;;;5051228;28;20451;-66
2022/09/14 00:51:37;;;;;;;3.37;3.07;;;18.70;99.90;;;;;;5050970;28;20568;-65
2022/09/14 00:54:06;;;;;;;5.60;4.00;;;18.70;99.90;;;;;;5050836;28;20444;-65
2022/09/14 00:56:36;;;;;;;3.80;3.00;;;18.80;99.90;;;;;;5050632;28;20448;-66
2022/09/14 00:59:08;;;;;;;7.03;3.90;;;18.80;99.90;;;;;;5050728;28;20467;-65
2022/09/14 01:01:35;;;;;;;4.60;3.50;;;18.90;99.90;;;;;;5050880;28;20475;-66
2022/09/14 01:04:02;;;;;;;4.70;3.40;;;18.90;99.90;;;;;;5050270;28;20483;-66
2022/09/14 01:06:36;;;;;;;3.67;3.33;;;18.90;99.90;;;;;;5050625;28;20460;-65
2022/09/14 01:09:19;;;;;;;5.13;3.87;;;18.90;99.90;;;;;;5050695;28;20440;-65
2022/09/14 01:12:08;;;;;;;4.27;3.47;;;18.90;99.90;;;;;;5050260;28;20468;-65
2022/09/14 01:14:41;;;;;;;3.90;3.50;;;18.90;99.90;;;;;;5050520;28;20440;-65
2022/09/14 01:17:15;;;;;;;4.00;3.70;;;18.90;99.90;;;;;;5050394;28;20459;-67
2022/09/14 01:20:00;;;;;;;5.00;3.73;;;19.00;99.90;;;;;;5050321;28;20447;-65
2022/09/14 01:22:35;;;;;;;3.30;3.00;;;19.00;99.90;;;;;;5049940;28;20483;-63
2022/09/14 01:25:15;;;;;;;4.47;3.67;;;18.90;99.90;;;;;;5050109;28;20479;-66
2022/09/14 01:27:45;;;;;;;4.37;3.40;;;18.80;99.90;;;;;;5050328;28;20436;-66
2022/09/14 01:30:14;;;;;;;4.80;3.70;;;18.70;99.90;;;;;;5050180;28;20451;-66
2022/09/14 01:32:44;;;;;;;4.60;3.57;;;18.60;99.90;;;;;;5049851;28;20499;-65
2022/09/14 01:35:17;;;;;;;4.30;3.90;;;18.50;99.90;;;;;;5049969;28;20444;-65
2022/09/14 01:37:47;;;;;;;4.13;3.57;;;18.40;99.90;;;;;;5049653;28;20451;-64
2022/09/14 01:40:18;;;;;;;12.37;5.90;;;18.50;99.90;;;;;;5049839;28;21003;-64
2022/09/14 01:42:50;;;;;;;8.37;5.90;;;18.50;99.90;;;;;;5049741;28;20456;-65
2022/09/14 01:45:20;;;;;;;10.60;6.10;;;18.40;99.90;;;;;;5049042;28;20509;-64
2022/09/14 01:47:50;;;;;;;8.30;4.90;;;18.20;99.90;;;;;;5029929;28;20453;-64
2022/09/14 01:50:24;;;;;;;4.40;4.00;;;18.00;99.90;;;;;;5030199;28;20477;-64
2022/09/14 01:52:54;;;;;;;6.33;3.73;;;18.00;99.90;;;;;;5030017;28;20465;-64
2022/09/14 01:55:28;;;;;;;5.53;4.10;;;17.90;99.90;;;;;;5029956;28;20444;-64
2022/09/14 01:58:02;;;;;;;7.23;3.87;;;17.90;99.90;;;;;;5049198;28;20823;-64
2022/09/14 02:00:30;;;;;;;5.90;4.23;;;18.00;99.90;;;;;;5030065;28;20544;-64
2022/09/14 02:03:04;;;;;;;7.43;4.20;;;18.00;99.90;;;;;;5030142;28;20480;-63
2022/09/14 02:05:36;;;;;;;7.53;4.50;;;18.10;99.90;;;;;;5043249;28;20858;-64
2022/09/14 02:08:03;;;;;;;7.43;4.47;;;18.10;99.90;;;;;;5050115;28;20942;-64
2022/09/14 02:10:31;;;;;;;5.10;4.20;;;18.10;99.90;;;;;;5050391;28;20741;-64
2022/09/14 02:12:59;;;;;;;5.50;4.97;;;18.10;99.90;;;;;;5049452;28;20471;-63
2022/09/14 02:15:26;;;;;;;7.10;4.87;;;18.10;99.90;;;;;;5050517;28;20815;-64
2022/09/14 02:17:53;;;;;;;5.37;4.83;;;18.00;99.90;;;;;;5049979;28;20981;-64
2022/09/14 02:20:27;;;;;;;5.17;4.67;;;18.00;99.90;;;;;;5050065;28;20869;-64
2022/09/14 02:22:54;;;;;;;4.90;4.50;;;18.00;99.90;;;;;;5049983;28;20474;-65
2022/09/14 02:25:21;;;;;;;5.67;5.10;;;18.00;99.90;;;;;;5049677;28;20490;-64
2022/09/14 02:27:48;;;;;;;7.03;5.53;;;18.00;99.90;;;;;;5050503;28;20444;-63
2022/09/14 02:30:19;;;;;;;7.00;5.17;;;18.00;99.90;;;;;;5050065;28;21071;-64
2022/09/14 02:32:55;;;;;;;6.50;5.07;;;17.90;99.90;;;;;;5049435;28;20905;-64
2022/09/14 02:35:26;;;;;;;6.50;4.70;;;17.90;99.90;;;;;;5049574;28;20490;-64
2022/09/14 02:38:03;;;;;;;6.17;5.40;;;17.90;99.90;;;;;;5049358;28;20494;-64
2022/09/14 02:40:34;;;;;;;6.03;5.43;;;18.00;99.90;;;;;;5049897;28;20482;-65
2022/09/14 02:43:12;;;;;;;6.17;5.37;;;18.00;99.90;;;;;;5049735;28;20850;-64
2022/09/14 02:45:47;;;;;;;6.47;5.73;;;17.90;99.90;;;;;;5049416;28;20498;-64
2022/09/14 02:48:19;;;;;;;6.10;5.47;;;17.90;99.90;;;;;;5049541;28;20439;-65
2022/09/14 02:50:51;;;;;;;7.37;6.37;;;17.90;99.90;;;;;;5049567;28;20934;-66
2022/09/14 02:53:24;;;;;;;7.20;6.07;;;17.90;99.90;;;;;;5049116;28;20464;-64
2022/09/14 02:55:55;;;;;;;9.23;8.33;;;18.00;99.90;;;;;;5050515;28;20455;-64
2022/09/14 02:58:22;;;;;;;8.27;6.40;;;18.00;99.90;;;;;;5053632;28;20452;-64
2022/09/14 03:00:50;;;;;;;6.80;5.20;;;18.00;99.90;;;;;;5054305;28;20458;-65
2022/09/14 03:03:20;;;;;;;7.20;6.03;;;18.00;99.90;;;;;;5054042;28;20460;-65
2022/09/14 03:05:47;;;;;;;7.43;6.00;;;18.00;99.90;;;;;;5054092;28;20486;-65
2022/09/14 03:08:14;;;;;;;5.80;5.27;;;17.90;99.90;;;;;;5053688;28;20632;-65
2022/09/14 03:10:43;;;;;;;6.50;5.27;;;17.90;99.90;;;;;;5054062;28;20454;-64
2022/09/14 03:13:10;;;;;;;6.33;5.23;;;17.90;99.90;;;;;;5053422;28;20463;-65
2022/09/14 03:15:36;;;;;;;6.73;5.97;;;17.80;99.90;;;;;;5053492;28;20656;-65
2022/09/14 03:18:06;;;;;;;10.03;6.73;;;17.80;99.90;;;;;;5053487;28;20459;-65
2022/09/14 03:20:34;;;;;;;6.30;5.70;;;17.80;99.90;;;;;;5053704;28;20817;-65
2022/09/14 03:23:01;;;;;;;8.90;7.30;;;17.90;99.90;;;;;;5053078;28;20468;-65
2022/09/14 03:25:28;;;;;;;7.73;7.03;;;17.90;99.90;;;;;;5052936;28;20489;-65
2022/09/14 03:27:56;;;;;;;8.10;7.10;;;17.90;99.90;;;;;;5052667;28;20440;-65
2022/09/14 03:30:23;;;;;;;7.37;6.60;;;18.00;99.90;;;;;;5052652;28;20448;-65
2022/09/14 03:32:50;;;;;;;8.10;6.87;;;18.00;99.90;;;;;;5052310;28;20548;-64
2022/09/14 03:35:19;;;;;;;7.70;6.87;;;18.00;99.90;;;;;;5052657;28;20454;-65
2022/09/14 03:37:46;;;;;;;7.97;5.60;;;17.90;99.90;;;;;;5052900;28;20443;-64
2022/09/14 03:40:15;;;;;;;7.17;6.57;;;17.90;99.90;;;;;;5052311;28;21267;-65
2022/09/14 03:42:43;;;;;;;7.17;6.57;;;17.90;99.90;;;;;;5052185;28;20464;-65
2022/09/14 03:45:11;;;;;;;7.37;6.60;;;17.90;99.90;;;;;;5052614;28;20486;-65
2022/09/14 03:47:38;;;;;;;16.07;9.00;;;17.80;99.90;;;;;;5052669;28;20440;-65
2022/09/14 03:50:06;;;;;;;10.20;7.43;;;17.80;99.90;;;;;;5052438;28;20448;-65
2022/09/14 03:52:35;;;;;;;8.00;7.27;;;17.90;99.90;;;;;;5052201;28;20467;-65
2022/09/14 03:55:03;;;;;;;6.60;6.00;;;18.00;99.90;;;;;;5052034;28;20460;-64
2022/09/14 03:57:29;;;;;;;9.07;6.77;;;18.00;99.90;;;;;;5032221;28;20449;-64
2022/09/14 03:59:56;;;;;;;9.17;7.33;;;17.90;99.90;;;;;;5032420;28;20546;-66
2022/09/14 04:02:23;;;;;;;10.90;7.90;;;17.90;99.90;;;;;;5050100;28;20487;-66
2022/09/14 04:04:50;;;;;;;8.63;7.80;;;17.90;99.90;;;;;;5051533;28;20996;-66
2022/09/14 04:07:17;;;;;;;9.10;8.20;;;17.80;99.90;;;;;;5050801;28;20451;-66
2022/09/14 04:09:45;;;;;;;9.33;7.70;;;17.80;99.90;;;;;;5051664;28;20484;-66
2022/09/14 04:12:11;;;;;;;9.80;8.17;;;17.90;99.90;;;;;;5051402;28;20464;-66
2022/09/14 04:14:38;;;;;;;9.90;9.00;;;18.00;99.90;;;;;;5051812;28;20440;-65
2022/09/14 04:17:05;;;;;;;8.63;7.77;;;18.00;99.90;;;;;;5052284;28;20823;-65
2022/09/14 04:19:34;;;;;;;9.17;8.27;;;18.00;99.90;;;;;;5052046;28;20459;-65
2022/09/14 04:22:00;;;;;;;9.67;7.97;;;18.00;99.90;;;;;;5051346;28;20479;-65
2022/09/14 04:24:27;;;;;;;8.93;7.70;;;18.00;99.90;;;;;;5051745;28;20462;-65
2022/09/14 04:26:55;;;;;;;9.10;7.40;;;18.00;99.90;;;;;;5051607;28;20456;-65
2022/09/14 04:29:22;;;;;;;9.17;7.77;;;17.90;99.90;;;;;;5051309;28;20454;-64
2022/09/14 04:31:49;;;;;;;10.30;8.27;;;18.00;99.90;;;;;;5050994;28;20479;-64
2022/09/14 04:34:15;;;;;;;9.60;7.63;;;17.90;99.90;;;;;;5051154;28;20444;-64
2022/09/14 04:36:42;;;;;;;9.80;6.97;;;18.00;99.90;;;;;;5051319;28;20440;-65
2022/09/14 04:39:12;;;;;;;7.43;6.83;;;18.00;99.90;;;;;;5051910;28;20460;-65
2022/09/14 04:41:39;;;;;;;8.90;6.90;;;18.00;99.90;;;;;;5050851;28;21048;-65
2022/09/14 04:44:07;;;;;;;10.33;8.00;;;18.00;99.90;;;;;;5050712;28;20447;-64
2022/09/14 04:46:34;;;;;;;7.97;7.27;;;18.00;99.90;;;;;;5051093;28;21047;-65
2022/09/14 04:49:01;;;;;;;8.47;7.77;;;18.10;99.90;;;;;;5050726;28;20448;-66
2022/09/14 04:51:31;;;;;;;8.60;7.70;;;18.10;99.90;;;;;;5050547;28;20499;-65
2022/09/14 04:53:59;;;;;;;8.50;7.67;;;18.10;99.90;;;;;;5049841;28;20452;-66
2022/09/14 04:56:27;;;;;;;11.10;9.10;;;18.10;99.90;;;;;;5052300;28;20938;-66
2022/09/14 04:58:56;;;;;;;10.07;8.47;;;18.20;99.90;;;;;;5050663;28;20475;-67
2022/09/14 05:01:26;;;;;;;9.50;8.60;;;18.20;99.90;;;;;;5050082;28;20470;-67
2022/09/14 05:03:54;;;;;;;14.40;10.10;;;18.20;99.90;;;;;;5048988;28;20452;-66
2022/09/14 05:06:23;;;;;;;11.57;10.40;;;18.20;99.90;;;;;;5041237;28;20901;-66
2022/09/14 05:08:51;;;;;;;11.70;10.60;;;18.10;99.90;;;;;;5038501;28;20441;-66
2022/09/14 05:11:19;;;;;;;12.60;10.43;;;18.20;99.90;;;;;;5040781;28;20464;-69
2022/09/14 05:13:46;;;;;;;13.17;11.93;;;18.20;99.90;;;;;;5041763;28;20448;-66
2022/09/14 05:16:16;;;;;;;15.63;12.10;;;18.20;99.90;;;;;;5038129;28;20450;-67
2022/09/14 05:18:44;;;;;;;12.63;11.43;;;18.30;99.90;;;;;;5042839;28;20444;-67
2022/09/14 05:21:13;;;;;;;15.27;12.90;;;18.30;99.90;;;;;;5050063;28;20443;-65
2022/09/14 05:23:40;;;;;;;12.77;11.57;;;18.20;99.90;;;;;;5047936;28;20448;-65
2022/09/14 05:26:07;;;;;;;13.20;11.90;;;18.20;99.90;;;;;;5049158;28;20482;-67
2022/09/14 05:28:35;;;;;;;15.40;12.17;;;18.20;99.90;;;;;;5049732;28;20897;-66
2022/09/14 05:31:05;;;;;;;13.73;12.47;;;18.30;99.90;;;;;;5049188;28;20449;-65
2022/09/14 05:33:33;;;;;;;14.63;13.30;;;18.20;99.90;;;;;;5049566;28;21099;-65
2022/09/14 05:36:02;;;;;;;15.03;12.63;;;18.20;99.90;;;;;;5050067;28;20451;-66
2022/09/14 05:38:30;;;;;;;13.77;12.37;;;18.20;99.90;;;;;;5049839;28;20455;-65
2022/09/14 05:40:57;;;;;;;12.90;11.67;;;18.30;99.90;;;;;;5049849;28;21138;-66
2022/09/14 05:43:24;;;;;;;12.97;11.77;;;18.40;99.90;;;;;;5049521;28;20444;-66
2022/09/14 05:45:51;;;;;;;12.07;11.07;;;18.50;99.90;;;;;;5049889;28;20486;-65
2022/09/14 05:48:18;;;;;;;13.07;11.67;;;18.60;99.90;;;;;;5050134;28;20440;-67
2022/09/14 05:50:45;;;;;;;12.97;10.90;;;18.60;99.90;;;;;;5049861;28;20451;-65
2022/09/14 05:53:13;;;;;;;12.70;11.40;;;18.70;99.90;;;;;;5049513;28;20466;-65
2022/09/14 05:55:40;;;;;;;13.17;11.93;;;18.80;99.90;;;;;;5049878;28;20451;-67
2022/09/14 05:58:07;;;;;;;13.73;11.67;;;18.80;99.90;;;;;;5050253;28;20460;-67
2022/09/14 06:00:34;;;;;;;11.10;10.20;;;18.80;99.90;;;;;;5049867;28;20504;-65
2022/09/14 06:03:00;;;;;;;16.77;11.13;;;18.90;99.90;;;;;;5049516;28;20500;-65
2022/09/14 06:05:27;;;;;;;11.27;10.13;;;18.90;99.90;;;;;;5049754;28;20480;-66
2022/09/14 06:07:55;;;;;;;11.33;10.27;;;18.90;99.90;;;;;;5049926;28;20486;-65
2022/09/14 06:10:23;;;;;;;11.67;10.60;;;18.90;99.90;;;;;;5050021;28;20452;-65
2022/09/14 06:12:49;;;;;;;10.40;9.40;;;18.90;99.90;;;;;;5049634;28;20844;-66
2022/09/14 06:15:16;;;;;;;10.37;9.37;;;18.90;99.90;;;;;;5049810;28;20440;-65
2022/09/14 06:17:43;;;;;;;13.50;10.90;;;18.90;99.90;;;;;;5045355;28;20944;-66
2022/09/14 06:20:11;;;;;;;12.40;11.00;;;19.00;99.90;;;;;;5049311;28;20970;-64
2022/09/14 06:22:37;;;;;;;12.33;11.13;;;19.00;99.90;;;;;;5048999;28;20984;-67
2022/09/14 06:25:05;;;;;;;12.50;11.40;;;19.00;99.90;;;;;;5049434;28;20456;-66
2022/09/14 06:27:33;;;;;;;12.60;11.40;;;19.10;99.90;;;;;;5049530;28;20455;-67
2022/09/14 06:30:00;;;;;;;12.07;11.03;;;19.10;99.90;;;;;;5049553;28;20459;-65
2022/09/14 06:32:29;;;;;;;11.13;9.90;;;19.10;99.90;;;;;;5052936;28;20479;-65
2022/09/14 06:34:56;;;;;;;11.13;10.00;;;19.10;99.90;;;;;;5053368;28;20941;-64
2022/09/14 06:37:23;;;;;;;11.30;10.23;;;19.10;99.90;;;;;;5053295;28;20961;-64
2022/09/14 06:39:50;;;;;;;12.47;10.13;;;19.30;99.90;;;;;;5053220;28;20455;-66
2022/09/14 06:42:16;;;;;;;11.90;10.70;;;19.40;99.90;;;;;;5052885;28;20471;-65
2022/09/14 06:44:46;;;;;;;12.13;10.60;;;19.50;99.90;;;;;;5053336;28;20826;-65
2022/09/14 06:47:13;;;;;;;12.30;11.00;;;19.50;99.90;;;;;;5053201;28;20475;-65
2022/09/14 06:49:40;;;;;;;10.43;9.47;;;19.60;99.90;;;;;;5053247;28;20448;-66
2022/09/14 06:52:07;;;;;;;13.03;9.03;;;19.70;99.90;;;;;;5052587;28;20464;-66
2022/09/14 06:54:34;;;;;;;9.37;8.37;;;19.70;99.90;;;;;;5053409;28;20452;-66
2022/09/14 06:57:00;;;;;;;13.80;9.07;;;19.70;99.90;;;;;;5053375;28;20436;-66
2022/09/14 06:59:27;;;;;;;10.23;9.33;;;19.80;99.90;;;;;;5053069;28;20454;-66
2022/09/14 07:01:55;;;;;;;9.80;8.80;;;19.80;99.90;;;;;;5052758;28;20478;-66
2022/09/14 07:04:23;;;;;;;10.70;9.70;;;19.90;99.90;;;;;;5052939;28;20482;-65
2022/09/14 07:06:50;;;;;;;9.87;8.87;;;19.80;99.90;;;;;;5052681;28;20480;-66
2022/09/14 07:09:18;;;;;;;9.97;9.07;;;19.90;99.90;;;;;;5052644;28;20443;-66
2022/09/14 07:11:45;;;;;;;8.30;7.50;;;20.00;99.90;;;;;;5051200;28;20499;-66
2022/09/14 07:14:12;;;;;;;9.60;8.70;;;20.10;99.90;;;;;;5052538;28;20440;-66
2022/09/14 07:16:40;;;;;;;9.03;8.23;;;20.10;99.90;;;;;;5051839;28;20443;-65
2022/09/14 07:19:11;;;;;;;10.83;9.43;;;20.30;99.90;;;;;;5052597;28;20440;-67
2022/09/14 07:21:38;;;;;;;10.10;8.60;;;20.50;99.90;;;;;;5051712;28;20475;-66
2022/09/14 07:24:05;;;;;;;8.67;7.90;;;20.80;99.90;;;;;;5052515;28;20831;-67
2022/09/14 07:26:34;;;;;;;9.37;8.47;;;21.00;99.90;;;;;;5052490;28;20487;-65
2022/09/14 07:29:03;;;;;;;9.30;8.50;;;21.10;99.90;;;;;;5052607;28;20448;-66
2022/09/14 07:31:33;;;;;;;8.37;7.67;;;21.30;99.90;;;;;;5052371;28;21005;-65
2022/09/14 07:34:02;;;;;;;9.60;8.23;;;21.40;99.90;;;;;;5052486;28;20455;-65
2022/09/14 07:36:31;;;;;;;10.70;8.00;;;21.40;99.90;;;;;;5052608;28;20476;-65
2022/09/14 07:38:58;;;;;;;9.27;8.13;;;21.40;99.90;;;;;;5052447;28;20451;-65
2022/09/14 07:41:28;;;;;;;8.10;7.30;;;21.50;99.90;;;;;;5052544;28;20973;-67
2022/09/14 07:43:58;;;;;;;8.73;7.60;;;21.50;99.90;;;;;;5051885;28;20458;-66
2022/09/14 07:46:26;;;;;;;9.10;7.57;;;21.60;99.90;;;;;;5051981;28;21046;-67
2022/09/14 07:48:55;;;;;;;8.50;5.57;;;21.60;99.90;;;;;;5052117;28;20459;-67
2022/09/14 07:51:22;;;;;;;6.90;6.30;;;21.70;99.90;;;;;;5052056;28;20464;-66
2022/09/14 07:53:50;;;;;;;7.00;6.30;;;22.00;99.90;;;;;;5051782;28;20452;-66
2022/09/14 07:56:18;;;;;;;6.23;5.63;;;22.30;99.90;;;;;;5052552;28;20463;-66
2022/09/14 07:58:45;;;;;;;7.77;5.50;;;22.50;99.90;;;;;;5052052;28;20452;-66
2022/09/14 08:01:13;;;;;;;7.85;5.82;;;22.80;99.90;;;;;;5052312;28;20348;-68
2022/09/14 08:03:42;;;;;;;6.20;5.00;;;23.00;99.90;;;;;;5051913;28;20202;-67
2022/09/14 08:06:11;;;;;;;4.80;4.40;;;23.10;99.90;;;;;;5051807;28;21016;-67
2022/09/14 08:08:40;;;;;;;5.00;4.57;;;23.10;99.90;;;;;;5051688;28;20513;-67
2022/09/14 08:11:11;;;;;;;7.40;4.60;;;23.00;99.90;;;;;;5051676;28;20448;-67
2022/09/14 08:13:40;;;;;;;5.40;4.37;;;23.00;99.90;;;;;;5051695;28;20812;-68
2022/09/14 08:16:07;;;;;;;4.50;4.20;;;23.10;99.90;;;;;;5051531;28;20447;-67
2022/09/14 08:18:35;;;;;;;6.27;4.17;;;23.10;99.90;;;;;;5051929;28;20448;-63
2022/09/14 08:21:07;;;;;;;6.03;3.70;;;23.20;99.90;;;;;;5052257;28;20633;-64
2022/09/14 08:23:34;;;;;;;4.40;4.00;;;23.20;99.90;;;;;;5051615;28;20443;-64
2022/09/14 08:26:04;;;;;;;4.03;3.73;;;23.30;99.90;;;;;;5051487;28;20486;-65
2022/09/14 08:28:34;;;;;;;5.27;4.30;;;23.40;99.90;;;;;;5051861;28;20436;-65
2022/09/14 08:31:05;;;;;;;4.57;4.17;;;23.40;99.90;;;;;;5051313;28;20505;-65
2022/09/14 08:33:33;;;;;;;6.30;3.73;;;23.50;99.90;;;;;;5051119;28;20448;-65
2022/09/14 08:36:00;;;;;;;5.30;3.90;;;23.50;99.90;;;;;;5051405;28;20945;-65
2022/09/14 08:38:27;;;;;;;6.30;3.90;;;23.50;99.90;;;;;;5051196;28;20810;-66
2022/09/14 08:40:54;;;;;;;6.27;3.73;;;23.30;99.90;;;;;;5051455;28;20454;-66
2022/09/14 08:43:24;;;;;;;5.63;3.77;;;23.30;99.90;;;;;;5050810;28;20474;-65
2022/09/14 08:46:01;;;;;;;3.57;3.27;;;23.30;99.90;;;;;;5051043;28;20444;-65
2022/09/14 08:48:32;;;;;;;3.37;3.07;;;23.20;99.90;;;;;;5051079;28;20945;-66
2022/09/14 08:50:59;;;;;;;6.07;3.90;;;23.20;99.90;;;;;;5050792;28;20448;-65
2022/09/14 08:53:26;;;;;;;6.57;4.30;;;23.30;99.90;;;;;;5050256;28;20444;-66
2022/09/14 08:55:58;;;;;;;3.80;3.40;;;23.50;99.90;;;;;;5051079;28;20444;-64
2022/09/14 08:58:35;;;;;;;4.57;3.57;;;23.70;99.90;;;;;;5050754;28;20447;-66
2022/09/14 09:01:12;;;;;;;5.40;3.70;;;23.90;99.90;;;;;;5050580;28;20451;-65
2022/09/14 09:04:08;;;;;;;4.53;4.10;;;24.00;99.90;;;;;;5050207;28;20933;-68
2022/09/14 09:06:42;;;;;;;8.00;4.73;;;24.20;99.90;;;;;;5045237;28;20479;-64
2022/09/14 09:09:19;;;;;;;5.30;4.83;;;24.30;99.90;;;;;;5050209;28;20924;-65
2022/09/14 09:11:50;;;;;;;7.20;4.30;;;24.50;99.90;;;;;;5049864;28;20490;-65
2022/09/14 09:14:19;;;;;;;6.47;3.80;;;24.60;99.90;;;;;;5050728;28;20436;-64
2022/09/14 09:16:52;;;;;;;6.10;4.63;;;24.70;99.90;;;;;;5050601;28;20448;-66
2022/09/14 09:19:24;;;;;;;4.00;3.40;;;24.90;99.90;;;;;;5050363;28;20448;-67
2022/09/14 09:21:51;;;;;;;5.70;3.50;;;25.10;99.90;;;;;;5049867;28;21013;-64
2022/09/14 09:24:26;;;;;;;4.30;3.83;;;25.20;99.90;;;;;;5049888;28;20864;-65
2022/09/14 09:26:53;;;;;;;18.43;4.00;;;25.10;99.90;;;;;;5050313;28;20482;-65
2022/09/14 09:29:20;;;;;;;6.07;3.90;;;25.20;99.90;;;;;;5050257;28;20459;-66
2022/09/14 09:31:52;;;;;;;8.30;3.80;;;25.50;99.90;;;;;;5049904;28;20476;-66
2022/09/14 09:34:25;;;;;;;6.10;3.97;;;26.00;99.90;;;;;;5049988;28;20914;-66
2022/09/14 09:36:54;;;;;;;3.20;2.87;;;26.50;99.90;;;;;;5050462;28;20440;-66
2022/09/14 09:39:22;;;;;;;3.67;3.13;;;26.50;99.90;;;;;;5050318;28;20467;-66
2022/09/14 09:41:55;;;;;;;3.80;2.67;;;26.70;99.90;;;;;;5050205;28;20495;-66
2022/09/14 09:44:21;;;;;;;7.70;3.50;;;26.60;99.90;;;;;;5050426;28;20440;-66
2022/09/14 09:46:54;;;;;;;3.10;2.47;;;26.50;99.90;;;;;;5050064;28;20486;-66
2022/09/14 09:49:23;;;;;;;4.63;2.87;;;26.20;99.90;;;;;;5050027;28;20448;-65
2022/09/14 09:51:51;;;;;;;5.23;4.73;;;26.00;99.90;;;;;;5049855;28;20479;-65
2022/09/14 09:54:24;;;;;;;4.53;3.00;;;26.10;99.90;;;;;;5050274;28;20551;-64
2022/09/14 09:56:54;;;;;;;5.07;2.90;;;26.50;99.90;;;;;;5049857;28;20455;-65
2022/09/14 09:59:28;;;;;;;6.50;2.63;;;26.60;99.90;;;;;;5049872;28;20826;-65
2022/09/14 10:02:13;;;;;;;3.10;2.80;;;26.40;99.90;;;;;;5049685;28;20467;-65
2022/09/14 10:04:57;;;;;;;4.40;3.37;;;26.20;99.90;;;;;;5050053;28;20452;-64
2022/09/14 10:07:25;;;;;;;7.63;3.00;;;26.40;99.90;;;;;;5049934;28;20487;-65
2022/09/14 10:09:58;;;;;;;3.10;2.80;;;26.50;99.90;;;;;;5049768;28;20486;-66
2022/09/14 10:12:25;;;;;;;4.37;2.90;;;26.80;99.90;;;;;;5049558;28;20476;-66
2022/09/14 10:15:06;;;;;;;7.03;2.77;;;27.20;99.90;;;;;;5049894;28;20451;-66
2022/09/14 10:17:34;;;;;;;4.13;2.40;;;27.30;99.90;;;;;;5049831;28;20538;-65
2022/09/14 10:20:02;;;;;;;4.23;3.50;;;27.50;99.90;;;;;;5049645;28;20443;-65
2022/09/14 10:22:30;;;;;;;3.20;2.57;;;27.50;99.90;;;;;;5049327;28;20510;-67
2022/09/14 10:25:00;;;;;;;4.17;2.53;;;27.30;99.90;;;;;;5049718;28;20467;-65
2022/09/14 10:27:40;;;;;;;5.80;3.20;;;27.00;99.90;;;;;;5049581;28;20479;-65
2022/09/14 10:30:13;;;;;;;4.43;3.53;;;26.60;99.90;;;;;;5049522;28;20862;-65
2022/09/14 10:32:44;;;;;;;2.70;2.50;;;26.60;99.90;;;;;;5049190;28;20472;-66
2022/09/14 10:35:16;;;;;;;5.13;2.70;;;26.90;99.90;;;;;;5049238;28;20447;-65
2022/09/14 10:37:57;;;;;;;2.93;2.63;;;27.20;99.90;;;;;;5049584;28;20475;-65
2022/09/14 10:40:32;;;;;;;4.33;2.80;;;27.30;99.90;;;;;;5049464;28;20800;-65
2022/09/14 10:43:09;;;;;;;3.50;2.77;;;27.20;99.90;;;;;;5049554;28;20472;-68
2022/09/14 10:45:39;;;;;;;3.93;2.93;;;27.00;99.90;;;;;;5049704;28;20432;-66
2022/09/14 10:48:44;;;;;;;6.60;3.00;;;26.80;99.90;;;;;;5049568;28;20487;-65
2022/09/14 10:51:31;;;;;;;4.03;2.47;;;26.80;99.90;;;;;;5030308;28;20459;-66
2022/09/14 10:54:07;;;;;;;3.50;2.50;;;26.80;99.90;;;;;;5049282;28;20443;-67
2022/09/14 10:56:45;;;;;;;4.53;2.77;;;26.70;99.90;;;;;;5049487;28;20885;-65
2022/09/14 10:59:25;;;;;;;4.47;2.70;;;26.70;99.90;;;;;;5049302;28;20440;-65
2022/09/14 11:02:19;;;;;;;3.50;2.80;;;27.10;99.90;;;;;;5049216;28;20517;-67
2022/09/14 11:04:59;;;;;;;2.77;2.50;;;27.20;99.90;;;;;;5050349;28;20462;-66
2022/09/14 11:07:32;;;;;;;3.10;2.47;;;27.60;99.90;;;;;;5048965;28;20483;-65
2022/09/14 11:10:10;;;;;;;4.10;3.03;;;27.80;99.90;;;;;;5049352;28;20443;-67
2022/09/14 11:12:44;;;;;;;3.77;2.90;;;27.70;99.90;;;;;;5048542;28;21010;-66
2022/09/14 11:15:20;;;;;;;5.60;2.83;;;27.70;99.90;;;;;;5049380;28;20497;-65
2022/09/14 11:18:03;;;;;;;4.97;2.60;;;27.80;99.90;;;;;;5051351;28;20444;-66
2022/09/14 11:20:41;;;;;;;3.17;2.47;;;28.10;99.90;;;;;;5052726;28;20831;-65
2022/09/14 11:23:23;;;;;;;3.10;2.67;;;28.00;99.90;;;;;;5052251;28;20892;-66
2022/09/14 11:25:54;;;;;;;8.70;3.23;;;28.60;99.90;;;;;;5052690;28;20476;-66
2022/09/14 11:28:25;;;;;;;3.03;2.37;;;29.10;99.90;;;;;;5052473;28;20475;-67
2022/09/14 11:30:56;;;;;;;2.73;1.87;;;29.60;99.90;;;;;;5052676;28;20458;-66
2022/09/14 11:33:29;;;;;;;2.90;2.27;;;29.40;99.90;;;;;;5052182;28;20809;-66
2022/09/14 11:36:03;;;;;;;6.63;2.87;;;29.60;99.90;;;;;;5052989;28;20454;-66
2022/09/14 11:38:36;;;;;;;3.10;2.30;;;30.00;99.90;;;;;;5052547;28;20455;-65
2022/09/14 11:41:13;;;;;;;4.13;2.07;;;29.80;99.90;;;;;;5052811;28;20514;-65
2022/09/14 11:43:47;;;;;;;3.80;2.00;;;30.00;99.90;;;;;;5052485;28;20448;-65
2022/09/14 11:46:18;;;;;;;2.80;2.33;;;31.20;99.90;;;;;;5049044;28;20940;-66
2022/09/14 11:48:53;;;;;;;5.63;2.43;;;31.70;99.30;;;;;;5046808;28;20480;-66
2022/09/14 11:51:24;;;;;;;4.57;2.30;;;31.60;98.10;;;;;;5051800;28;20491;-65
2022/09/14 11:53:51;;;;;;;4.83;2.20;;;30.70;99.80;;;;;;5047674;28;20558;-65
2022/09/14 11:56:25;;;;;;;5.07;2.57;;;29.90;99.90;;;;;;5048384;28;20451;-67
2022/09/14 11:58:54;;;;;;;2.43;2.20;;;29.30;99.90;;;;;;5049141;28;20497;-64
2022/09/14 12:01:39;;;;;;;3.37;2.20;;;29.40;99.90;;;;;;5049816;28;20502;-65
2022/09/14 12:04:12;;;;;;;5.63;2.43;;;29.40;99.90;;;;;;5047503;28;21147;-64
2022/09/14 12:06:58;;;;;;;2.83;2.20;;;29.10;99.90;;;;;;5048614;28;20448;-69
2022/09/14 12:09:45;;;;;;;3.60;2.43;;;28.60;99.90;;;;;;5048171;28;20456;-68
2022/09/14 12:12:33;;;;;;;4.30;2.53;;;28.00;99.90;;;;;;5044167;28;20841;-68
2022/09/14 12:15:01;;;;;;;5.50;2.50;;;27.70;99.90;;;;;;5045993;28;20459;-66
2022/09/14 12:17:32;;;;;;;2.67;2.20;;;27.50;99.90;;;;;;5049530;28;20527;-64
2022/09/14 12:20:34;;;;;;;2.80;2.50;;;27.30;99.90;;;;;;5049015;28;20459;-66
2022/09/14 12:23:31;;;;;;;4.93;2.70;;;26.90;99.90;;;;;;5048072;28;20838;-66
2022/09/14 12:26:28;;;;;;;3.90;2.57;;;26.50;99.90;;;;;;5042586;28;20460;-66
2022/09/14 12:28:58;;;;;;;7.53;3.13;;;26.40;99.90;;;;;;5048865;28;20490;-66
2022/09/14 12:31:39;;;;;;;5.07;2.53;;;26.40;99.90;;;;;;5047775;28;20494;-67
2022/09/14 12:34:18;;;;;;;2.67;2.43;;;26.50;99.90;;;;;;5048621;28;20444;-67
2022/09/14 12:37:01;;;;;;;5.10;2.73;;;26.50;99.90;;;;;;5039983;28;20827;-68
2022/09/14 12:39:31;;;;;;;5.53;2.90;;;26.50;99.90;;;;;;5050186;28;20444;-66
2022/09/14 12:42:27;;;;;;;5.40;2.07;;;26.40;99.90;;;;;;5049667;28;20456;-67
2022/09/14 12:44:54;;;;;;;4.43;2.83;;;26.20;99.90;;;;;;5050880;28;20452;-66
2022/09/14 12:47:58;;;;;;;4.20;2.90;;;26.10;99.90;;;;;;5050732;28;20501;-68
2022/09/14 12:50:30;;;;;;;4.20;3.00;;;26.00;99.90;;;;;;5036986;28;20956;-67
2022/09/14 12:53:29;;;;;;;2.93;2.57;;;25.80;99.90;;;;;;5050190;28;20475;-67
2022/09/14 12:56:03;;;;;;;3.63;3.00;;;25.60;99.90;;;;;;5050922;28;20454;-66
2022/09/14 12:58:49;;;;;;;5.40;3.67;;;25.40;99.90;;;;;;5046816;28;20507;-65
2022/09/14 13:01:25;;;;;;;5.73;3.43;;;24.90;99.90;;;;;;5049634;28;20467;-66
2022/09/14 13:03:54;;;;;;;4.20;3.43;;;24.20;99.90;;;;;;5050058;28;20436;-66